createdAt,value
2018-07-23T00:02:59.684Z,83.21
2018-07-23T00:05:30.760Z,83.46
2018-07-23T00:07:59.356Z,82.79
2018-07-23T00:10:28.119Z,84.67
2018-07-23T00:12:56.667Z,84.68
2018-07-23T00:15:25.477Z,84.90
2018-07-23T00:17:54.069Z,85.00
2018-07-23T00:20:23.467Z,84.04
2018-07-23T00:22:52.012Z,84.55
2018-07-23T00:25:20.636Z,83.91
2018-07-23T00:27:49.236Z,83.60
2018-07-23T00:30:17.824Z,83.53
2018-07-23T00:32:46.565Z,83.65
2018-07-23T00:35:15.120Z,82.74
2018-07-23T00:37:43.924Z,82.44
2018-07-23T00:40:12.515Z,82.85
2018-07-23T00:42:41.139Z,82.78
2018-07-23T00:45:10.176Z,82.85
2018-07-23T00:50:29.652Z,83.32
2018-07-23T00:52:58.214Z,83.33
2018-07-23T00:55:26.947Z,83.17
2018-07-23T00:57:55.524Z,82.55
2018-07-23T01:00:24.088Z,82.21
2018-07-23T01:02:52.655Z,81.71
2018-07-23T01:05:26.229Z,82.34
2018-07-23T01:07:56.212Z,81.85
2018-07-23T01:10:24.825Z,82.21
2018-07-23T01:12:53.431Z,81.88
2018-07-23T01:15:22.065Z,82.03
2018-07-23T01:17:50.629Z,82.00
2018-07-23T01:20:19.263Z,82.13
2018-07-23T01:22:47.857Z,81.75
2018-07-23T01:25:16.448Z,81.97
2018-07-23T01:27:45.042Z,82.06
2018-07-23T01:30:13.624Z,81.97
2018-07-23T01:32:42.258Z,81.46
2018-07-23T01:35:10.961Z,81.77
2018-07-23T01:37:39.510Z,81.91
2018-07-23T01:40:08.115Z,81.42
2018-07-23T01:42:36.696Z,81.48
2018-07-23T01:45:05.653Z,81.27
2018-07-23T01:47:34.260Z,81.57
2018-07-23T01:50:02.817Z,82.03
2018-07-23T01:52:31.374Z,82.19
2018-07-23T01:55:00.024Z,82.12
2018-07-23T01:57:28.593Z,82.54
2018-07-23T01:59:57.200Z,82.11
2018-07-23T02:02:26.610Z,82.75
2018-07-23T02:04:55.153Z,82.32
2018-07-23T02:07:26.009Z,82.70
2018-07-23T02:09:54.622Z,82.62
2018-07-23T02:12:23.175Z,82.90
2018-07-23T02:14:51.783Z,82.89
2018-07-23T02:17:20.398Z,82.74
2018-07-23T02:19:49.255Z,82.70
2018-07-23T02:22:17.864Z,82.57
2018-07-23T02:24:46.557Z,82.22
2018-07-23T02:27:15.562Z,82.11
2018-07-23T02:29:44.189Z,81.92
2018-07-23T02:32:12.780Z,82.01
2018-07-23T02:34:41.641Z,82.33
2018-07-23T02:37:10.470Z,82.68
2018-07-23T02:39:39.040Z,82.73
2018-07-23T02:42:07.642Z,82.67
2018-07-23T02:44:36.208Z,82.71
2018-07-23T02:47:04.816Z,82.55
2018-07-23T02:49:33.362Z,82.58
2018-07-23T02:52:01.916Z,82.39
2018-07-23T02:54:30.535Z,82.49
2018-07-23T02:56:59.083Z,82.13
2018-07-23T02:59:27.936Z,82.27
2018-07-23T03:01:56.500Z,82.49
2018-07-23T03:04:25.057Z,81.99
2018-07-23T03:06:53.625Z,82.46
2018-07-23T03:09:22.207Z,82.18
2018-07-23T03:11:50.784Z,82.30
2018-07-23T03:14:19.361Z,82.32
2018-07-23T03:16:47.917Z,82.50
2018-07-23T03:19:16.529Z,82.29
2018-07-23T03:21:45.173Z,81.85
2018-07-23T03:24:13.824Z,82.36
2018-07-23T03:26:42.399Z,82.71
2018-07-23T03:29:11.416Z,81.87
2018-07-23T03:31:40.036Z,81.77
2018-07-23T03:34:08.635Z,82.09
2018-07-23T03:36:37.177Z,82.21
2018-07-23T03:39:08.039Z,81.92
2018-07-23T03:41:36.643Z,81.54
2018-07-23T03:44:05.769Z,81.68
2018-07-23T03:46:37.319Z,81.48
2018-07-23T03:49:06.362Z,81.61
2018-07-23T03:51:34.936Z,81.91
2018-07-23T03:54:03.550Z,81.29
2018-07-23T03:56:32.123Z,81.58
2018-07-23T03:59:00.689Z,81.68
2018-07-23T04:01:29.249Z,81.27
2018-07-23T04:03:57.931Z,81.28
2018-07-23T04:06:27.346Z,81.40
2018-07-23T04:08:55.980Z,81.17
2018-07-23T04:11:24.551Z,81.44
2018-07-23T04:13:53.148Z,81.37
2018-07-23T04:16:21.910Z,81.82
2018-07-23T04:18:50.499Z,81.98
2018-07-23T04:21:19.081Z,82.19
2018-07-23T04:23:47.640Z,82.04
2018-07-23T04:26:16.209Z,82.22
2018-07-23T04:28:44.796Z,81.95
2018-07-23T04:31:13.445Z,82.14
2018-07-23T04:33:42.169Z,82.04
2018-07-23T04:36:10.719Z,82.03
2018-07-23T04:38:39.336Z,82.15
2018-07-23T04:41:07.976Z,81.87
2018-07-23T04:43:36.656Z,82.23
2018-07-23T04:46:05.300Z,82.68
2018-07-23T04:48:34.151Z,82.56
2018-07-23T04:51:02.752Z,82.62
2018-07-23T04:53:31.692Z,82.70
2018-07-23T04:56:00.765Z,82.77
2018-07-23T04:58:29.343Z,82.73
2018-07-23T05:00:58.169Z,83.07
2018-07-23T05:03:26.778Z,82.56
2018-07-23T05:05:55.316Z,83.26
2018-07-23T05:08:23.998Z,83.24
2018-07-23T05:10:52.561Z,83.09
2018-07-23T05:13:21.211Z,83.56
2018-07-23T05:15:49.836Z,83.53
2018-07-23T05:18:18.567Z,85.16
2018-07-23T05:20:47.200Z,84.71
2018-07-23T05:23:15.781Z,84.61
2018-07-23T05:25:44.330Z,84.07
2018-07-23T05:28:12.924Z,84.67
2018-07-23T05:30:41.492Z,84.97
2018-07-23T05:33:10.228Z,86.09
2018-07-23T05:35:38.800Z,85.13
2018-07-23T05:38:07.396Z,86.26
2018-07-23T05:40:35.963Z,86.50
2018-07-23T05:43:04.601Z,85.80
2018-07-23T05:45:33.265Z,85.77
2018-07-23T05:48:01.856Z,85.87
2018-07-23T05:50:30.429Z,83.79
2018-07-23T05:52:59.065Z,83.35
2018-07-23T05:55:27.776Z,83.57
2018-07-23T05:57:56.386Z,83.15
2018-07-23T06:00:24.986Z,82.68
2018-07-23T06:02:53.582Z,81.88
2018-07-23T06:05:24.224Z,81.30
2018-07-23T06:07:52.964Z,80.81
2018-07-23T06:10:21.570Z,80.13
2018-07-23T06:12:50.213Z,79.39
2018-07-23T06:15:18.800Z,79.50
2018-07-23T06:17:47.364Z,80.70
2018-07-23T06:20:15.944Z,80.64
2018-07-23T06:22:44.576Z,80.46
2018-07-23T06:25:13.266Z,81.57
2018-07-23T06:27:42.127Z,81.84
2018-07-23T06:30:11.591Z,81.27
2018-07-23T06:32:40.334Z,80.78
2018-07-23T06:35:09.003Z,79.70
2018-07-23T06:37:37.562Z,78.24
2018-07-23T06:40:07.567Z,76.10
2018-07-23T06:42:36.131Z,76.50
2018-07-23T06:45:04.813Z,76.44
2018-07-23T06:47:33.471Z,78.03
2018-07-23T06:50:02.053Z,78.26
2018-07-23T06:52:30.708Z,77.52
2018-07-23T06:54:59.279Z,77.44
2018-07-23T06:57:28.050Z,76.87
2018-07-23T06:59:56.737Z,76.14
2018-07-23T07:02:25.276Z,76.19
2018-07-23T07:04:53.843Z,75.69
2018-07-23T07:07:22.412Z,76.64
2018-07-23T07:09:50.996Z,76.61
2018-07-23T07:12:19.631Z,75.86
2018-07-23T07:14:48.222Z,75.64
2018-07-23T07:17:16.799Z,76.33
2018-07-23T07:19:45.489Z,77.68
2018-07-23T07:22:14.036Z,77.98
2018-07-23T07:24:42.682Z,77.64
2018-07-23T07:27:11.481Z,76.04
2018-07-23T07:29:40.027Z,76.49
2018-07-23T07:32:08.577Z,76.13
2018-07-23T07:34:37.175Z,75.46
2018-07-23T07:37:05.867Z,76.13
2018-07-23T07:39:34.411Z,76.08
2018-07-23T07:42:03.057Z,75.32
2018-07-23T07:44:31.648Z,74.11
2018-07-23T07:47:00.211Z,74.03
2018-07-23T07:49:29.025Z,74.18
2018-07-23T07:51:57.821Z,73.10
2018-07-23T07:54:26.417Z,72.39
2018-07-23T07:56:55.021Z,72.65
2018-07-23T07:59:24.280Z,72.70
2018-07-23T08:01:52.839Z,72.11
2018-07-23T08:04:21.401Z,71.90
2018-07-23T08:06:49.969Z,71.84
2018-07-23T08:09:18.551Z,71.72
2018-07-23T08:11:47.257Z,70.72
2018-07-23T08:14:15.975Z,70.68
2018-07-23T08:16:44.547Z,70.31
2018-07-23T08:19:13.847Z,69.97
2018-07-23T08:21:42.408Z,69.34
2018-07-23T08:24:11.069Z,69.88
2018-07-23T08:26:39.608Z,69.03
2018-07-23T08:29:08.219Z,69.34
2018-07-23T08:31:36.913Z,69.63
2018-07-23T08:34:05.603Z,69.32
2018-07-23T08:36:34.212Z,68.88
2018-07-23T08:39:03.655Z,68.49
2018-07-23T08:41:32.427Z,67.57
2018-07-23T08:44:01.256Z,67.41
2018-07-23T08:46:29.944Z,66.79
2018-07-23T08:48:58.568Z,66.47
2018-07-23T08:51:27.242Z,64.83
2018-07-23T08:53:55.797Z,64.09
2018-07-23T08:56:24.362Z,63.99
2018-07-23T08:58:53.029Z,64.18
2018-07-23T09:01:21.593Z,63.06
2018-07-23T09:03:50.170Z,63.68
2018-07-23T09:06:18.752Z,63.56
2018-07-23T09:08:47.513Z,62.26
2018-07-23T09:11:16.049Z,62.18
2018-07-23T09:13:44.704Z,61.14
2018-07-23T09:16:13.318Z,62.26
2018-07-23T09:18:41.909Z,63.05
2018-07-23T09:21:11.756Z,62.75
2018-07-23T09:23:40.466Z,61.78
2018-07-23T09:26:09.216Z,61.44
2018-07-23T09:28:37.760Z,60.62
2018-07-23T09:31:06.446Z,60.45
2018-07-23T09:33:35.068Z,60.89
2018-07-23T09:36:03.655Z,60.00
2018-07-23T09:38:32.189Z,59.29
2018-07-23T09:41:00.751Z,58.74
2018-07-23T09:43:29.303Z,58.76
2018-07-23T09:45:57.897Z,58.25
2018-07-23T09:48:26.463Z,58.55
2018-07-23T09:50:55.026Z,57.85
2018-07-23T09:53:23.722Z,57.13
2018-07-23T09:55:52.251Z,56.67
2018-07-23T09:58:20.851Z,56.19
2018-07-23T10:01:02.383Z,55.70
2018-07-23T10:03:31.046Z,55.03
2018-07-23T10:05:59.526Z,55.50
2018-07-23T10:08:29.016Z,55.32
2018-07-23T10:10:57.858Z,55.45
2018-07-23T10:13:26.484Z,55.68
2018-07-23T10:15:55.072Z,56.08
2018-07-23T10:18:23.839Z,55.08
2018-07-23T10:20:52.503Z,55.54
2018-07-23T10:23:21.068Z,55.65
2018-07-23T10:25:49.649Z,53.06
2018-07-23T10:28:18.223Z,52.17
2018-07-23T10:30:46.851Z,51.25
2018-07-23T10:33:15.494Z,50.35
2018-07-23T10:35:44.081Z,50.83
2018-07-23T10:38:12.668Z,51.02
2018-07-23T10:40:41.403Z,50.01
2018-07-23T10:43:11.371Z,49.49
2018-07-23T10:45:40.088Z,48.95
2018-07-23T10:48:08.662Z,50.43
2018-07-23T10:50:37.212Z,50.83
2018-07-23T10:53:05.815Z,51.76
2018-07-23T10:55:34.667Z,51.74
2018-07-23T10:58:03.214Z,50.52
2018-07-23T11:00:31.744Z,50.04
2018-07-23T11:03:00.316Z,50.81
2018-07-23T11:05:29.192Z,48.57
2018-07-23T11:07:57.762Z,49.84
2018-07-23T11:10:26.553Z,48.16
2018-07-23T11:12:55.264Z,48.98
2018-07-23T11:15:24.461Z,47.74
2018-07-23T11:17:53.008Z,48.22
2018-07-23T11:20:21.738Z,47.90
2018-07-23T11:22:50.286Z,45.28
2018-07-23T11:25:39.178Z,45.70
2018-07-23T11:27:47.604Z,46.59
2018-07-23T11:30:16.190Z,45.97
2018-07-23T11:32:44.773Z,46.72
2018-07-23T11:35:13.588Z,45.54
2018-07-23T11:37:42.205Z,44.09
2018-07-23T11:40:10.873Z,44.15
2018-07-23T11:42:39.702Z,44.71
2018-07-23T11:45:08.348Z,46.29
2018-07-23T11:47:36.946Z,44.92
2018-07-23T11:50:05.644Z,45.46
2018-07-23T11:52:34.242Z,43.46
2018-07-23T11:55:02.832Z,44.14
2018-07-23T11:57:31.399Z,42.68
2018-07-23T12:00:00.042Z,44.82
2018-07-23T12:02:28.647Z,41.63
2018-07-23T12:04:57.299Z,41.59
2018-07-23T12:07:26.287Z,43.23
2018-07-23T12:09:55.012Z,44.47
2018-07-23T12:12:23.840Z,43.58
2018-07-23T12:14:53.217Z,43.60
2018-07-23T12:17:24.716Z,44.26
2018-07-23T12:19:53.461Z,44.61
2018-07-23T12:22:22.120Z,44.07
2018-07-23T12:24:50.677Z,41.48
2018-07-23T12:27:19.316Z,42.52
2018-07-23T12:29:47.956Z,39.01
2018-07-23T12:32:16.500Z,40.51
2018-07-23T12:34:45.073Z,37.99
2018-07-23T12:37:14.646Z,40.86
2018-07-23T12:39:43.205Z,41.23
2018-07-23T12:42:11.817Z,41.00
2018-07-23T12:44:40.512Z,39.67
2018-07-23T12:47:09.141Z,38.43
2018-07-23T12:49:37.675Z,38.33
2018-07-23T12:52:06.245Z,38.80
2018-07-23T12:54:34.896Z,39.67
2018-07-23T12:57:03.516Z,39.42
2018-07-23T12:59:32.103Z,38.69
2018-07-23T13:02:00.696Z,38.23
2018-07-23T13:04:29.356Z,39.89
2018-07-23T13:06:57.944Z,37.88
2018-07-23T13:09:26.583Z,39.07
2018-07-23T13:11:55.216Z,37.95
2018-07-23T13:14:23.964Z,37.81
2018-07-23T13:16:52.534Z,36.83
2018-07-23T13:19:21.164Z,37.58
2018-07-23T13:21:49.754Z,37.50
2018-07-23T13:24:18.384Z,36.02
2018-07-23T13:26:47.115Z,36.81
2018-07-23T13:29:16.094Z,37.36
2018-07-23T13:31:44.643Z,37.39
2018-07-23T13:34:13.317Z,38.04
2018-07-23T13:36:42.100Z,38.34
2018-07-23T13:39:13.531Z,37.15
2018-07-23T13:41:42.340Z,36.46
2018-07-23T13:44:12.080Z,36.55
2018-07-23T13:46:40.977Z,38.31
2018-07-23T13:49:09.610Z,34.32
2018-07-23T13:51:38.224Z,36.35
2018-07-23T13:54:07.024Z,36.42
2018-07-23T13:56:35.678Z,36.75
2018-07-23T13:59:04.298Z,35.58
2018-07-23T14:01:33.063Z,37.23
2018-07-23T14:04:01.831Z,36.58
2018-07-23T14:06:30.461Z,36.51
2018-07-23T14:08:59.040Z,35.99
2018-07-23T14:11:27.681Z,37.50
2018-07-23T14:13:57.146Z,37.03
2018-07-23T14:16:27.661Z,35.94
2018-07-23T14:18:56.324Z,36.91
2018-07-23T14:21:32.888Z,35.45
2018-07-23T14:24:01.511Z,36.34
2018-07-23T14:26:31.451Z,35.15
2018-07-23T14:29:00.068Z,36.36
2018-07-23T14:31:28.804Z,35.73
2018-07-23T14:33:57.395Z,36.36
2018-07-23T14:36:26.027Z,34.76
2018-07-23T14:38:54.577Z,34.94
2018-07-23T14:41:23.151Z,34.81
2018-07-23T14:43:51.763Z,36.15
2018-07-23T14:46:20.343Z,36.15
2018-07-23T14:48:48.896Z,35.13
2018-07-23T14:51:17.754Z,36.16
2018-07-23T14:53:46.391Z,36.32
2018-07-23T14:56:15.078Z,35.34
2018-07-23T14:58:43.707Z,35.91
2018-07-23T15:01:12.341Z,35.40
2018-07-23T15:03:40.907Z,34.23
2018-07-23T15:06:09.493Z,34.21
2018-07-23T15:08:38.100Z,35.88
2018-07-23T15:11:06.719Z,36.31
2018-07-23T15:13:35.292Z,35.72
2018-07-23T15:16:03.920Z,35.01
2018-07-23T15:18:32.511Z,35.23
2018-07-23T15:21:01.098Z,33.98
2018-07-23T15:23:29.784Z,35.58
2018-07-23T15:26:04.799Z,34.60
2018-07-23T15:28:33.364Z,34.06
2018-07-23T15:31:01.901Z,34.32
2018-07-23T15:33:30.541Z,33.83
2018-07-23T15:35:59.142Z,34.26
2018-07-23T15:38:27.827Z,33.05
2018-07-23T15:40:56.415Z,34.39
2018-07-23T15:43:25.053Z,35.45
2018-07-23T15:45:53.800Z,35.09
2018-07-23T15:48:22.362Z,35.46
2018-07-23T15:50:51.276Z,35.57
2018-07-23T15:53:20.007Z,35.11
2018-07-23T15:55:48.648Z,35.51
2018-07-23T15:58:17.211Z,34.51
2018-07-23T16:00:45.792Z,35.45
2018-07-23T16:03:14.550Z,34.00
2018-07-23T16:05:44.154Z,34.66
2018-07-23T16:08:12.741Z,34.90
2018-07-23T16:10:41.445Z,33.79
2018-07-23T16:13:09.993Z,34.70
2018-07-23T16:15:38.648Z,33.20
2018-07-23T16:18:07.220Z,34.37
2018-07-23T16:20:35.800Z,34.77
2018-07-23T16:23:04.415Z,35.05
2018-07-23T16:25:33.016Z,34.95
2018-07-23T16:28:01.608Z,34.54
2018-07-23T16:30:30.184Z,35.96
2018-07-23T16:32:58.801Z,35.99
2018-07-23T16:35:27.605Z,35.22
2018-07-23T16:37:56.200Z,34.94
2018-07-23T16:40:24.811Z,36.86
2018-07-23T16:42:53.700Z,36.77
2018-07-23T16:45:22.260Z,38.13
2018-07-23T16:47:50.874Z,37.94
2018-07-23T16:50:19.492Z,37.54
2018-07-23T16:52:48.637Z,39.17
2018-07-23T16:55:17.284Z,40.35
2018-07-23T16:57:45.844Z,40.45
2018-07-23T17:00:14.529Z,41.15
2018-07-23T17:02:43.160Z,39.98
2018-07-23T17:05:12.243Z,40.15
2018-07-23T17:07:40.817Z,39.64
2018-07-23T17:10:09.472Z,40.46
2018-07-23T17:12:38.031Z,39.78
2018-07-23T17:15:08.677Z,41.12
2018-07-23T17:17:37.336Z,41.11
2018-07-23T17:20:06.788Z,41.27
2018-07-23T17:22:35.376Z,42.14
2018-07-23T17:25:04.060Z,41.01
2018-07-23T17:27:32.725Z,41.30
2018-07-23T17:30:01.336Z,41.76
2018-07-23T17:32:30.134Z,41.62
2018-07-23T17:34:58.676Z,41.80
2018-07-23T17:37:27.342Z,42.34
2018-07-23T17:39:55.908Z,42.61
2018-07-23T17:42:24.479Z,44.11
2018-07-23T17:44:53.127Z,43.72
2018-07-23T17:47:21.780Z,44.03
2018-07-23T17:49:50.387Z,44.16
2018-07-23T17:52:18.991Z,44.07
2018-07-23T17:54:47.558Z,44.80
2018-07-23T17:57:16.145Z,44.28
2018-07-23T17:59:44.764Z,44.33
2018-07-23T18:02:14.410Z,44.78
2018-07-23T18:04:43.434Z,45.61
2018-07-23T18:07:12.852Z,45.16
2018-07-23T18:09:41.435Z,44.79
2018-07-23T18:12:10.106Z,45.13
2018-07-23T18:14:38.892Z,45.74
2018-07-23T18:17:07.539Z,45.76
2018-07-23T18:19:36.126Z,46.56
2018-07-23T18:22:04.766Z,46.68
2018-07-23T18:24:33.466Z,46.67
2018-07-23T18:27:02.030Z,46.61
2018-07-23T18:29:30.607Z,46.57
2018-07-23T18:31:59.181Z,46.63
2018-07-23T18:34:27.763Z,47.29
2018-07-23T18:36:56.424Z,47.10
2018-07-23T18:39:25.124Z,47.94
2018-07-23T18:41:53.651Z,48.35
2018-07-23T18:44:22.365Z,48.85
2018-07-23T18:46:50.932Z,48.79
2018-07-23T18:49:33.036Z,48.60
2018-07-23T18:52:01.626Z,49.16
2018-07-23T18:54:31.205Z,49.47
2018-07-23T18:57:00.937Z,49.24
2018-07-23T18:59:29.533Z,49.04
2018-07-23T19:01:58.675Z,48.85
2018-07-23T19:04:27.352Z,48.68
2018-07-23T19:06:55.943Z,49.11
2018-07-23T19:09:25.618Z,49.93
2018-07-23T19:11:55.084Z,50.13
2018-07-23T19:14:23.696Z,50.52
2018-07-23T19:16:53.272Z,50.25
2018-07-23T19:19:21.964Z,51.10
2018-07-23T19:21:50.520Z,52.22
2018-07-23T19:24:19.661Z,53.59
2018-07-23T19:26:48.247Z,54.36
2018-07-23T19:29:16.888Z,55.38
2018-07-23T19:31:45.449Z,56.76
2018-07-23T19:34:14.104Z,57.32
2018-07-23T19:36:42.742Z,57.46
2018-07-23T19:39:13.216Z,57.95
2018-07-23T19:41:41.870Z,58.24
2018-07-23T19:44:10.873Z,58.74
2018-07-23T19:46:39.858Z,59.24
2018-07-23T19:49:08.544Z,59.77
2018-07-23T19:51:37.406Z,60.29
2018-07-23T19:54:06.912Z,60.46
2018-07-23T19:56:35.494Z,61.21
2018-07-23T19:59:04.207Z,61.39
2018-07-23T20:01:32.944Z,61.03
2018-07-23T20:04:01.556Z,61.82
2018-07-23T20:06:31.009Z,61.26
2018-07-23T20:09:01.395Z,61.94
2018-07-23T20:11:30.490Z,62.14
2018-07-23T20:13:59.043Z,61.53
2018-07-23T20:16:27.668Z,61.58
2018-07-23T20:18:56.301Z,61.85
2018-07-23T20:21:31.412Z,62.06
2018-07-23T20:24:00.046Z,61.63
2018-07-23T20:26:28.617Z,62.23
2018-07-23T20:28:57.201Z,63.43
2018-07-23T20:31:25.864Z,63.27
2018-07-23T20:33:54.430Z,64.16
2018-07-23T20:36:23.258Z,63.71
2018-07-23T20:38:51.867Z,63.97
2018-07-23T20:41:20.440Z,65.07
2018-07-23T20:43:49.029Z,64.33
2018-07-23T20:46:17.608Z,64.60
2018-07-23T20:48:46.291Z,63.81
2018-07-23T20:51:15.957Z,64.62
2018-07-23T20:53:44.567Z,64.66
2018-07-23T20:56:13.135Z,64.43
2018-07-23T20:58:41.700Z,64.92
2018-07-23T21:01:10.298Z,64.45
2018-07-23T21:03:39.057Z,65.65
2018-07-23T21:06:07.675Z,66.52
2018-07-23T21:08:36.257Z,66.55
2018-07-23T21:11:04.893Z,66.81
2018-07-23T21:13:33.468Z,66.80
2018-07-23T21:16:02.253Z,67.06
2018-07-23T21:18:30.816Z,66.81
2018-07-23T21:21:00.302Z,66.91
2018-07-23T21:23:29.036Z,66.62
2018-07-23T21:25:57.631Z,66.49
2018-07-23T21:28:26.207Z,66.88
2018-07-23T21:30:54.780Z,66.68
2018-07-23T21:33:23.708Z,67.05
2018-07-23T21:35:52.323Z,66.70
2018-07-23T21:38:21.052Z,66.45
2018-07-23T21:40:49.682Z,67.04
2018-07-23T21:43:18.245Z,67.11
2018-07-23T21:45:46.902Z,66.70
2018-07-23T21:48:15.513Z,67.16
2018-07-23T21:50:44.236Z,66.39
2018-07-23T21:53:13.192Z,66.72
2018-07-23T21:55:41.743Z,66.53
2018-07-23T21:58:10.307Z,66.28
2018-07-23T22:00:38.917Z,66.31
2018-07-23T22:03:07.598Z,65.76
2018-07-23T22:05:36.913Z,66.10
2018-07-23T22:08:06.391Z,66.54
2018-07-23T22:10:34.986Z,66.24
2018-07-23T22:13:03.716Z,66.20
2018-07-23T22:15:32.275Z,66.37
2018-07-23T22:18:00.860Z,66.90
2018-07-23T22:20:29.556Z,66.33
2018-07-23T22:22:58.185Z,66.31
2018-07-23T22:25:26.794Z,66.18
2018-07-23T22:27:55.397Z,65.95
2018-07-23T22:30:24.060Z,64.99
2018-07-23T22:32:52.963Z,65.04
2018-07-23T22:35:21.645Z,65.00
2018-07-23T22:37:51.060Z,64.54
2018-07-23T22:40:19.623Z,64.16
2018-07-23T22:42:48.266Z,64.28
2018-07-23T22:45:17.862Z,64.50
2018-07-23T22:47:46.483Z,64.52
2018-07-23T22:50:15.084Z,64.06
2018-07-23T22:52:43.733Z,63.58
2018-07-23T22:55:12.830Z,64.40
2018-07-23T22:57:41.575Z,64.14
2018-07-23T23:00:10.236Z,64.43
2018-07-23T23:02:38.979Z,64.24
2018-07-23T23:05:07.658Z,64.07
2018-07-23T23:07:36.243Z,64.21
2018-07-23T23:10:04.899Z,64.69
2018-07-23T23:12:33.540Z,64.08
2018-07-23T23:15:02.145Z,64.57
2018-07-23T23:17:30.769Z,63.85
2018-07-23T23:19:59.389Z,63.97
2018-07-23T23:22:28.188Z,63.90
2018-07-23T23:24:56.819Z,64.59
2018-07-23T23:27:25.736Z,63.42
2018-07-23T23:29:54.317Z,63.33
2018-07-23T23:32:22.951Z,62.90
2018-07-23T23:34:51.621Z,62.73
2018-07-23T23:37:20.287Z,63.56
2018-07-23T23:39:48.935Z,63.41
2018-07-23T23:42:17.748Z,63.73
2018-07-23T23:44:46.441Z,63.96
2018-07-23T23:47:15.127Z,63.68
2018-07-23T23:49:43.700Z,63.09
2018-07-23T23:52:12.371Z,62.99
2018-07-23T23:54:41.015Z,63.39
2018-07-23T23:57:10.952Z,63.08
2018-07-23T23:59:39.553Z,62.64
